createdAt,value
2019-04-14T00:00:03.659Z,36.80
2019-04-14T00:02:40.633Z,35.70
2019-04-14T00:05:13.069Z,34.97
2019-04-14T00:07:44.970Z,33.90
2019-04-14T00:10:16.492Z,35.07
2019-04-14T00:12:47.317Z,36.50
2019-04-14T00:15:27.761Z,37.43
2019-04-14T00:17:50.651Z,37.17
2019-04-14T00:20:21.373Z,39.00
2019-04-14T00:22:55.603Z,37.93
2019-04-14T00:25:26.329Z,40.50
2019-04-14T00:28:03.047Z,40.50
2019-04-14T00:30:33.834Z,38.70
2019-04-14T00:33:08.380Z,39.23
2019-04-14T00:35:40.692Z,37.20
2019-04-14T00:38:15.637Z,41.87
2019-04-14T00:41:09.428Z,43.17
2019-04-14T00:43:45.824Z,42.93
2019-04-14T00:46:25.443Z,41.60
2019-04-14T00:49:09.300Z,43.00
2019-04-14T00:51:42.442Z,44.63
2019-04-14T00:54:17.439Z,48.67
2019-04-14T00:56:59.340Z,46.10
2019-04-14T00:59:31.127Z,46.30
2019-04-14T01:02:03.423Z,48.83
2019-04-14T01:04:42.420Z,53.77
2019-04-14T01:07:19.537Z,48.93
2019-04-14T01:10:05.987Z,47.27
2019-04-14T01:12:36.749Z,48.73
2019-04-14T01:15:07.610Z,46.83
2019-04-14T01:17:39.297Z,51.23
2019-04-14T01:20:12.386Z,50.77
2019-04-14T01:22:51.005Z,49.20
2019-04-14T01:25:56.468Z,48.00
2019-04-14T01:28:27.111Z,49.00
2019-04-14T01:31:38.656Z,51.33
2019-04-14T01:34:15.251Z,52.10
2019-04-14T01:36:51.829Z,51.03
2019-04-14T01:39:42.169Z,49.07
2019-04-14T01:42:13.789Z,52.03
2019-04-14T01:44:54.740Z,54.63
2019-04-14T01:47:25.474Z,51.67
2019-04-14T01:49:57.281Z,54.87
2019-04-14T01:52:41.842Z,56.33
2019-04-14T01:55:18.385Z,54.40
2019-04-14T01:58:07.886Z,54.47
2019-04-14T02:00:44.411Z,56.20
2019-04-14T02:03:17.066Z,58.23
2019-04-14T02:05:47.813Z,58.60
2019-04-14T02:08:19.579Z,56.87
2019-04-14T02:10:51.781Z,57.13
2019-04-14T02:13:22.796Z,52.80
2019-04-14T02:15:53.504Z,54.97
2019-04-14T02:18:25.100Z,55.47
2019-04-14T02:20:55.929Z,54.50
2019-04-14T02:23:27.897Z,53.97
2019-04-14T02:26:02.280Z,52.70
2019-04-14T02:28:37.672Z,54.60
2019-04-14T02:31:25.074Z,54.90
2019-04-14T02:34:07.981Z,55.37
2019-04-14T02:36:52.389Z,56.97
2019-04-14T02:39:15.602Z,57.03
2019-04-14T02:41:56.742Z,53.13
2019-04-14T02:46:53.305Z,57.13
2019-04-14T02:49:18.912Z,56.47
2019-04-14T02:51:58.514Z,56.27
2019-04-14T02:54:36.953Z,53.63
2019-04-14T03:04:45.590Z,53.63
2019-04-14T03:09:52.438Z,58.23
2019-04-14T03:12:31.662Z,58.40
2019-04-14T03:17:47.230Z,54.10
2019-04-14T03:20:32.425Z,59.10
2019-04-14T03:23:14.943Z,59.97
2019-04-14T03:25:37.599Z,55.63
2019-04-14T03:36:58.395Z,58.23
2019-04-14T03:39:00.834Z,57.33
2019-04-14T03:43:54.283Z,58.67
2019-04-14T03:49:07.434Z,52.40
2019-04-14T03:51:44.753Z,51.30
2019-04-14T03:54:20.271Z,49.80
2019-04-14T03:57:01.929Z,47.93
2019-04-14T03:59:32.686Z,45.93
2019-04-14T04:02:03.449Z,48.80
2019-04-14T04:04:34.045Z,44.57
2019-04-14T04:07:32.321Z,44.07
2019-04-14T04:10:05.127Z,47.33
2019-04-14T04:12:35.855Z,43.00
2019-04-14T04:15:19.721Z,45.77
2019-04-14T04:18:19.881Z,46.03
2019-04-14T04:20:58.818Z,45.47
2019-04-14T04:23:53.413Z,45.47
2019-04-14T04:26:34.777Z,43.93
2019-04-14T04:29:13.597Z,45.27
2019-04-14T04:32:08.207Z,46.33
2019-04-14T04:34:44.582Z,48.90
2019-04-14T04:37:21.472Z,46.17
2019-04-14T04:40:02.904Z,41.83
2019-04-14T04:42:33.630Z,46.33
2019-04-14T04:45:10.409Z,43.37
2019-04-14T04:47:45.280Z,46.50
2019-04-14T04:50:17.077Z,44.47
2019-04-14T04:52:47.918Z,44.57
2019-04-14T04:55:20.529Z,45.60
2019-04-14T04:57:52.326Z,45.97
2019-04-14T05:00:23.038Z,47.20
2019-04-14T05:02:54.976Z,45.63
2019-04-14T05:06:02.756Z,46.60
2019-04-14T05:08:34.719Z,48.70
2019-04-14T05:11:12.149Z,45.87
2019-04-14T05:13:44.677Z,45.77
2019-04-14T05:16:15.239Z,46.13
2019-04-14T05:18:46.345Z,46.53
2019-04-14T05:21:19.238Z,47.60
2019-04-14T05:23:49.931Z,44.20
2019-04-14T05:26:20.538Z,46.10
2019-04-14T05:28:57.112Z,42.73
2019-04-14T05:31:38.302Z,44.00
2019-04-14T05:34:08.939Z,45.63
2019-04-14T05:36:41.617Z,47.40
2019-04-14T05:39:13.494Z,45.07
2019-04-14T05:41:58.114Z,46.23
2019-04-14T05:44:25.316Z,44.67
2019-04-14T05:46:56.000Z,45.30
2019-04-14T05:49:54.473Z,48.00
2019-04-14T05:52:28.144Z,43.27
2019-04-14T05:55:03.049Z,47.90
2019-04-14T05:57:46.650Z,44.40
2019-04-14T06:00:19.070Z,46.90
2019-04-14T06:03:02.133Z,44.80
2019-04-14T06:05:33.957Z,49.37
2019-04-14T06:08:05.868Z,46.93
2019-04-14T06:10:36.556Z,50.20
2019-04-14T06:13:12.790Z,49.17
2019-04-14T06:15:52.284Z,45.07
2019-04-14T06:18:27.919Z,46.97
2019-04-14T06:21:02.092Z,43.20
2019-04-14T06:23:33.830Z,46.60
2019-04-14T06:26:04.529Z,47.43
2019-04-14T06:28:35.129Z,45.53
2019-04-14T06:31:10.499Z,42.93
2019-04-14T06:33:58.081Z,42.73
2019-04-14T06:36:30.426Z,45.33
2019-04-14T06:39:03.763Z,44.33
2019-04-14T06:41:34.464Z,44.33
2019-04-14T06:44:05.252Z,45.97
2019-04-14T06:46:36.028Z,42.93
2019-04-14T06:49:06.709Z,41.30
2019-04-14T06:51:37.468Z,44.33
2019-04-14T06:54:13.108Z,46.90
2019-04-14T06:56:49.860Z,47.33
2019-04-14T06:59:20.626Z,44.77
2019-04-14T07:01:53.335Z,45.03
2019-04-14T07:04:47.217Z,47.80
2019-04-14T07:07:19.855Z,48.27
2019-04-14T07:09:56.531Z,45.10
2019-04-14T07:12:37.995Z,47.80
2019-04-14T07:15:08.675Z,46.63
2019-04-14T07:17:43.649Z,49.53
2019-04-14T07:20:14.604Z,47.73
2019-04-14T07:22:49.361Z,46.93
2019-04-14T07:25:20.251Z,45.23
2019-04-14T07:27:50.949Z,46.87
2019-04-14T07:30:39.567Z,48.43
2019-04-14T07:33:13.136Z,48.30
2019-04-14T07:35:54.956Z,44.47
2019-04-14T07:38:43.566Z,46.30
2019-04-14T07:41:18.722Z,46.43
2019-04-14T07:43:51.032Z,47.70
2019-04-14T07:46:44.961Z,45.67
2019-04-14T07:49:32.948Z,47.40
2019-04-14T07:52:27.808Z,46.70
2019-04-14T07:55:06.869Z,44.07
2019-04-14T07:57:39.394Z,44.33
2019-04-14T08:00:11.968Z,44.27
2019-04-14T08:03:02.460Z,42.20
2019-04-14T08:05:35.983Z,42.70
2019-04-14T08:08:06.970Z,43.00
2019-04-14T08:10:43.630Z,42.10
2019-04-14T08:13:14.341Z,42.47
2019-04-14T08:15:46.289Z,42.13
2019-04-14T08:18:17.113Z,41.87
2019-04-14T08:20:47.828Z,38.90
2019-04-14T08:23:19.603Z,40.97
2019-04-14T08:25:50.282Z,37.70
2019-04-14T08:28:24.199Z,37.17
2019-04-14T08:30:54.825Z,39.27
2019-04-14T08:33:31.753Z,41.43
2019-04-14T08:36:13.231Z,31.47
2019-04-14T08:38:43.780Z,38.13
2019-04-14T08:41:14.571Z,39.37
2019-04-14T08:43:55.784Z,39.20
2019-04-14T08:46:36.990Z,39.33
2019-04-14T08:49:11.282Z,40.13
2019-04-14T08:51:47.351Z,42.30
2019-04-14T08:54:26.653Z,37.83
2019-04-14T08:57:06.499Z,42.13
2019-04-14T09:00:07.524Z,39.20
2019-04-14T09:02:45.949Z,40.47
2019-04-14T09:05:39.974Z,35.10
2019-04-14T09:08:20.189Z,39.57
2019-04-14T09:10:53.508Z,40.60
2019-04-14T09:13:26.317Z,39.77
2019-04-14T09:15:56.944Z,42.57
2019-04-14T09:18:31.073Z,38.67
2019-04-14T09:21:09.257Z,37.13
2019-04-14T09:23:39.992Z,32.87
2019-04-14T09:26:12.842Z,34.80
2019-04-14T09:28:43.511Z,35.43
2019-04-14T09:31:15.248Z,33.97
2019-04-14T09:33:45.884Z,34.40
2019-04-14T09:36:16.636Z,33.07
2019-04-14T09:38:47.340Z,34.30
2019-04-14T09:41:18.022Z,32.30
2019-04-14T09:43:48.724Z,30.70
2019-04-14T09:46:19.393Z,29.07
2019-04-14T09:48:50.093Z,32.63
2019-04-14T09:51:20.689Z,27.67
2019-04-14T09:53:51.314Z,25.00
2019-04-14T09:56:22.093Z,26.23
2019-04-14T09:58:52.834Z,25.10
2019-04-14T10:01:24.478Z,27.77
2019-04-14T10:03:56.169Z,25.93
2019-04-14T10:06:26.933Z,26.57
2019-04-14T10:08:59.558Z,23.73
2019-04-14T10:11:30.326Z,25.03
2019-04-14T10:14:01.022Z,26.10
2019-04-14T10:16:31.781Z,27.53
2019-04-14T10:19:02.468Z,27.43
2019-04-14T10:21:39.039Z,23.70
2019-04-14T10:24:09.743Z,26.07
2019-04-14T10:26:40.482Z,23.13
2019-04-14T10:29:11.243Z,23.20
2019-04-14T10:31:41.819Z,22.27
2019-04-14T10:34:12.496Z,22.77
2019-04-14T10:36:43.059Z,24.77
2019-04-14T10:39:13.721Z,22.97
2019-04-14T10:41:44.420Z,23.80
2019-04-14T10:44:15.084Z,23.67
2019-04-14T10:46:45.850Z,23.37
2019-04-14T10:49:16.837Z,26.13
2019-04-14T10:51:54.407Z,20.73
2019-04-14T10:54:37.392Z,19.77
2019-04-14T10:57:08.057Z,20.53
2019-04-14T10:59:38.806Z,20.73
2019-04-14T11:02:09.507Z,22.97
2019-04-14T11:04:40.492Z,20.70
2019-04-14T11:07:12.730Z,22.37
2019-04-14T11:09:53.776Z,22.33
2019-04-14T11:12:24.292Z,22.70
2019-04-14T11:14:54.978Z,18.80
2019-04-14T11:17:25.668Z,22.10
2019-04-14T11:19:56.409Z,22.23
2019-04-14T11:22:27.115Z,22.63
2019-04-14T11:25:01.025Z,19.80
2019-04-14T11:27:38.886Z,21.07
2019-04-14T11:30:13.218Z,22.13
2019-04-14T11:32:48.561Z,22.27
2019-04-14T11:35:23.528Z,20.53
2019-04-14T11:37:55.803Z,21.93
2019-04-14T11:40:28.151Z,19.43
2019-04-14T11:43:02.067Z,23.07
2019-04-14T11:45:32.773Z,19.00
2019-04-14T11:48:03.490Z,20.33
2019-04-14T11:50:34.657Z,20.33
2019-04-14T11:53:11.499Z,19.33
2019-04-14T11:55:42.206Z,17.97
2019-04-14T11:58:12.937Z,21.10
2019-04-14T12:00:45.518Z,21.67
2019-04-14T12:03:26.739Z,20.43
2019-04-14T12:06:17.258Z,19.80
2019-04-14T12:08:49.473Z,19.80
2019-04-14T12:11:20.194Z,22.23
2019-04-14T12:13:50.822Z,20.53
2019-04-14T12:16:23.672Z,18.17
2019-04-14T12:18:54.390Z,20.17
2019-04-14T12:21:25.070Z,19.90
2019-04-14T12:23:55.741Z,21.97
2019-04-14T12:26:26.637Z,18.30
2019-04-14T12:29:00.117Z,16.77
2019-04-14T12:31:30.888Z,18.27
2019-04-14T12:34:03.686Z,17.87
2019-04-14T12:36:42.674Z,18.77
2019-04-14T12:39:21.767Z,18.77
2019-04-14T12:41:58.793Z,18.40
2019-04-14T12:44:40.184Z,17.87
2019-04-14T12:47:29.909Z,20.03
2019-04-14T12:50:05.129Z,19.50
2019-04-14T12:52:35.877Z,20.63
2019-04-14T12:55:11.554Z,16.07
2019-04-14T12:57:46.875Z,18.50
2019-04-14T13:00:35.548Z,23.97
2019-04-14T13:03:06.220Z,21.63
2019-04-14T13:05:44.384Z,19.47
2019-04-14T13:08:16.412Z,22.13
2019-04-14T13:10:51.047Z,21.10
2019-04-14T13:13:27.344Z,20.27
2019-04-14T13:15:59.038Z,23.43
2019-04-14T13:18:29.728Z,20.00
2019-04-14T13:21:07.367Z,22.73
2019-04-14T13:23:38.090Z,21.73
2019-04-14T13:26:08.726Z,25.20
2019-04-14T13:28:39.500Z,24.07
2019-04-14T13:31:13.158Z,20.77
2019-04-14T13:33:43.854Z,20.60
2019-04-14T13:36:14.604Z,24.53
2019-04-14T13:38:45.263Z,26.27
2019-04-14T13:41:15.895Z,22.93
2019-04-14T13:43:52.417Z,24.57
2019-04-14T13:46:25.145Z,23.33
2019-04-14T13:48:56.853Z,25.73
2019-04-14T13:51:27.654Z,23.23
2019-04-14T13:54:01.716Z,21.00
2019-04-14T13:56:46.848Z,22.43
2019-04-14T13:59:17.544Z,22.67
2019-04-14T14:01:56.261Z,24.27
2019-04-14T14:04:32.218Z,19.50
2019-04-14T14:07:03.347Z,24.10
2019-04-14T14:09:34.107Z,25.47
2019-04-14T14:12:38.695Z,21.87
2019-04-14T14:15:12.386Z,24.03
2019-04-14T14:17:50.758Z,25.33
2019-04-14T14:20:52.537Z,24.47
2019-04-14T14:23:31.104Z,22.00
2019-04-14T14:26:08.224Z,22.00
2019-04-14T14:28:39.400Z,24.73
2019-04-14T14:31:10.157Z,24.40
2019-04-14T14:33:50.269Z,22.43
2019-04-14T14:36:27.024Z,23.73
2019-04-14T14:38:57.830Z,25.03
2019-04-14T14:41:28.752Z,24.07
2019-04-14T14:43:59.714Z,22.23
2019-04-14T14:46:53.815Z,21.27
2019-04-14T14:49:28.963Z,31.67
2019-04-14T14:52:02.451Z,25.00
2019-04-14T14:54:35.257Z,21.47
2019-04-14T14:57:06.140Z,24.27
2019-04-14T14:59:36.953Z,22.97
2019-04-14T15:02:15.543Z,20.07
2019-04-14T15:04:56.487Z,20.87
2019-04-14T15:07:27.199Z,24.80
2019-04-14T15:10:00.061Z,20.97
2019-04-14T15:12:30.792Z,23.27
2019-04-14T15:15:14.375Z,22.10
2019-04-14T15:17:45.238Z,19.40
2019-04-14T15:20:15.916Z,19.43
2019-04-14T15:22:52.386Z,22.53
2019-04-14T15:25:23.261Z,24.23
2019-04-14T15:27:55.204Z,24.13
2019-04-14T15:30:26.066Z,19.77
2019-04-14T15:32:58.940Z,21.00
2019-04-14T15:35:35.821Z,24.13
2019-04-14T15:38:30.200Z,20.20
2019-04-14T15:41:06.775Z,20.27
2019-04-14T15:43:46.733Z,19.90
2019-04-14T15:46:32.928Z,20.10
2019-04-14T15:49:03.874Z,21.07
2019-04-14T15:51:34.804Z,19.67
2019-04-14T15:54:05.753Z,21.10
2019-04-14T15:56:38.635Z,19.77
2019-04-14T15:59:11.206Z,22.17
2019-04-14T16:01:43.790Z,18.27
2019-04-14T16:04:28.637Z,22.30
2019-04-14T16:07:04.202Z,21.97
2019-04-14T16:09:36.776Z,20.53
2019-04-14T16:12:21.550Z,19.77
2019-04-14T16:28:27.827Z,17.10
2019-04-14T16:31:18.090Z,19.90
2019-04-14T16:34:02.764Z,19.03
2019-04-14T16:36:33.897Z,18.37
2019-04-14T16:39:16.198Z,20.33
2019-04-14T16:41:47.251Z,20.87
2019-04-14T16:44:19.311Z,19.13
2019-04-14T16:47:00.589Z,19.87
2019-04-14T16:49:31.645Z,19.70
2019-04-14T16:52:13.538Z,19.33
2019-04-14T16:54:46.084Z,18.40
2019-04-14T16:57:29.135Z,18.70
2019-04-14T17:00:11.695Z,17.90
2019-04-14T17:02:42.884Z,17.87
2019-04-14T17:05:14.961Z,22.13
2019-04-14T17:07:45.992Z,18.10
2019-04-14T17:10:17.031Z,18.47
2019-04-14T17:13:06.298Z,16.57
2019-04-14T17:15:59.264Z,19.30
2019-04-14T17:18:37.280Z,20.03
2019-04-14T17:21:20.589Z,16.70
2019-04-14T17:24:02.335Z,18.13
2019-04-14T17:26:33.934Z,17.67
2019-04-14T17:29:08.560Z,17.93
2019-04-14T17:31:59.474Z,17.27
2019-04-14T17:34:34.282Z,18.37
2019-04-14T17:37:22.860Z,20.00
2019-04-14T17:40:05.275Z,20.37
2019-04-14T17:42:39.999Z,15.83
2019-04-14T17:45:19.134Z,18.80
2019-04-14T17:47:51.797Z,17.10
2019-04-14T17:50:40.888Z,17.50
2019-04-14T17:53:09.956Z,18.57
2019-04-14T17:55:50.065Z,19.33
2019-04-14T17:58:26.066Z,16.60
2019-04-14T18:01:16.172Z,17.67
2019-04-14T18:03:50.286Z,18.33
2019-04-14T18:06:35.931Z,15.77
2019-04-14T18:09:12.063Z,18.20
2019-04-14T18:11:59.511Z,15.60
2019-04-14T18:14:51.882Z,16.57
2019-04-14T18:17:36.414Z,19.27
2019-04-14T18:20:13.642Z,19.67
2019-04-14T18:22:47.533Z,15.03
2019-04-14T18:25:23.411Z,14.70
2019-04-14T18:28:15.085Z,16.77
2019-04-14T18:30:59.614Z,16.40
2019-04-14T18:33:49.555Z,16.63
2019-04-14T18:36:24.954Z,16.70
2019-04-14T18:39:04.133Z,18.47
2019-04-14T18:41:45.246Z,18.67
2019-04-14T18:44:40.100Z,18.83
2019-04-14T18:47:38.450Z,15.97
2019-04-14T18:50:18.558Z,16.80
2019-04-14T18:53:07.918Z,15.20
2019-04-14T18:55:58.621Z,18.33
2019-04-14T18:58:38.260Z,17.63
2019-04-14T19:01:13.781Z,20.13
2019-04-14T19:03:45.048Z,17.13
2019-04-14T19:06:17.122Z,16.77
2019-04-14T19:08:48.094Z,18.47
2019-04-14T19:11:21.875Z,17.47
2019-04-14T19:13:57.438Z,16.60
2019-04-14T19:16:39.335Z,15.00
2019-04-14T19:19:10.061Z,14.50
2019-04-14T19:21:42.006Z,16.83
2019-04-14T19:24:13.356Z,17.20
2019-04-14T19:26:44.393Z,18.90
2019-04-14T19:29:17.647Z,16.83
2019-04-14T19:31:48.641Z,17.40
2019-04-14T19:34:27.021Z,17.03
2019-04-14T19:36:58.113Z,17.03
2019-04-14T19:39:34.565Z,17.00
2019-04-14T19:42:05.596Z,17.10
2019-04-14T19:44:38.548Z,18.30
2019-04-14T19:47:09.543Z,16.63
2019-04-14T19:49:41.688Z,18.60
2019-04-14T19:52:12.635Z,17.93
2019-04-14T19:54:45.671Z,16.60
2019-04-14T19:57:18.318Z,18.23
2019-04-14T19:59:52.500Z,19.07
2019-04-14T20:02:32.670Z,17.80
2019-04-14T20:05:03.914Z,18.67
2019-04-14T20:07:34.852Z,20.30
2019-04-14T20:10:06.957Z,19.90
2019-04-14T20:12:37.921Z,18.07
2019-04-14T20:15:10.876Z,16.87
2019-04-14T20:17:52.357Z,20.60
2019-04-14T20:20:29.105Z,19.70
2019-04-14T20:23:01.912Z,18.70
2019-04-14T20:25:44.823Z,18.27
2019-04-14T20:28:17.394Z,18.87
2019-04-14T20:31:02.650Z,19.93
2019-04-14T20:33:34.845Z,20.80
2019-04-14T20:36:13.511Z,15.17
2019-04-14T20:38:47.973Z,17.07
2019-04-14T20:41:20.029Z,18.40
2019-04-14T20:43:51.158Z,19.03
2019-04-14T20:46:22.094Z,18.20
2019-04-14T20:48:52.896Z,17.60
2019-04-14T20:51:24.694Z,18.37
2019-04-14T20:53:55.334Z,18.17
2019-04-14T20:56:26.097Z,14.97
2019-04-14T20:59:00.472Z,20.17
2019-04-14T21:01:32.816Z,16.70
2019-04-14T21:04:14.404Z,16.17
2019-04-14T21:07:02.685Z,17.67
2019-04-14T21:09:38.546Z,14.63
2019-04-14T21:12:10.874Z,14.73
2019-04-14T21:14:53.348Z,13.80
2019-04-14T21:17:25.660Z,15.53
2019-04-14T21:20:01.008Z,14.60
2019-04-14T21:22:51.164Z,14.43
2019-04-14T21:25:25.964Z,16.13
2019-04-14T21:28:01.417Z,17.60
2019-04-14T21:30:37.789Z,15.53
2019-04-14T21:33:10.061Z,16.30
2019-04-14T21:35:51.453Z,16.63
2019-04-14T21:38:26.714Z,17.17
2019-04-14T21:41:13.325Z,15.27
2019-04-14T21:43:55.793Z,16.37
2019-04-14T21:46:32.613Z,15.83
2019-04-14T21:49:04.306Z,17.93
2019-04-14T21:52:00.225Z,17.83
2019-04-14T21:54:36.038Z,19.13
2019-04-14T21:57:14.348Z,18.23
2019-04-14T22:00:03.067Z,16.63
2019-04-14T22:02:53.442Z,19.30
2019-04-14T22:05:28.480Z,16.93
2019-04-14T22:08:11.252Z,16.40
2019-04-14T22:10:43.478Z,19.63
2019-04-14T22:13:19.410Z,17.40
2019-04-14T22:15:49.996Z,18.03
2019-04-14T22:18:22.769Z,17.07
2019-04-14T22:20:53.454Z,18.47
2019-04-14T22:23:24.125Z,16.13
2019-04-14T22:25:54.776Z,18.10
2019-04-14T22:28:43.047Z,16.20
2019-04-14T22:31:18.923Z,17.03
2019-04-14T22:34:08.883Z,17.50
2019-04-14T22:39:50.179Z,17.43
2019-04-14T22:42:26.890Z,16.90
2019-04-14T22:44:58.049Z,16.53
2019-04-14T22:47:30.122Z,16.60
2019-04-14T22:50:02.027Z,17.00
2019-04-14T22:52:32.701Z,17.13
2019-04-14T22:55:04.088Z,15.17
2019-04-14T22:57:34.811Z,14.90
2019-04-14T23:00:07.652Z,16.07
2019-04-14T23:02:50.598Z,14.63
2019-04-14T23:05:38.060Z,13.67
2019-04-14T23:08:13.300Z,13.77
2019-04-14T23:10:57.752Z,14.37
2019-04-14T23:13:49.432Z,14.10
2019-04-14T23:16:35.901Z,14.03
2019-04-14T23:19:08.145Z,12.80
2019-04-14T23:21:43.483Z,14.73
2019-04-14T23:24:27.960Z,13.37
2019-04-14T23:27:03.677Z,12.90
2019-04-14T23:29:36.364Z,14.13
2019-04-14T23:32:08.157Z,13.23
2019-04-14T23:34:38.776Z,12.90
2019-04-14T23:37:11.534Z,11.90
2019-04-14T23:39:42.258Z,12.63
2019-04-14T23:42:22.031Z,12.80
2019-04-14T23:44:55.956Z,13.20
2019-04-14T23:47:30.241Z,13.87
2019-04-14T23:50:00.907Z,14.23
2019-04-14T23:52:32.638Z,14.73
2019-04-14T23:55:03.444Z,13.27
2019-04-14T23:57:34.121Z,13.27
